Time;durP1;ratioP1;P1;durP2;ratioP2;P2;SDS_P1;SDS_P2;PMS_P1;PMS_P2;Temp;Humidity;BMP_temperature;BMP_pressure;BME280_temperature;BME280_humidity;BME280_pressure;Samples;Min_cycle;Max_cycle;Signal;HPM_P1;HPM_P2
2021/03/02 00:02:00;;;;;;;64.30;34.33;;;6.70;99.90;;;6.45;84.07;103047.50;4920427;29;20052;-78
2021/03/02 00:04:28;;;;;;;68.67;35.87;;;6.50;99.90;;;6.26;84.68;103010.69;4920043;29;20067;-77
2021/03/02 00:06:56;;;;;;;65.57;36.73;;;6.40;99.90;;;6.26;85.08;103044.84;4920101;29;20047;-80
2021/03/02 00:09:24;;;;;;;66.20;35.00;;;6.30;99.90;;;6.12;85.59;103019.63;4919983;29;20119;-79
2021/03/02 00:11:52;;;;;;;69.53;35.47;;;6.20;99.90;;;6.06;85.70;103011.44;4920183;29;20095;-79
2021/03/02 00:14:21;;;;;;;65.03;36.10;;;6.20;99.90;;;6.19;85.99;103037.50;4919921;29;20047;-79
2021/03/02 00:16:57;;;;;;;61.40;35.13;;;6.10;99.90;;;6.19;86.20;103043.63;4919869;29;20044;-79
2021/03/02 00:19:33;;;;;;;69.20;35.30;;;6.10;99.90;;;6.21;85.93;103036.72;4919901;29;20048;-79
2021/03/02 00:22:11;;;;;;;64.73;36.63;;;6.20;99.90;;;5.55;85.69;102920.53;4919814;29;20040;-78
2021/03/02 00:24:41;;;;;;;66.20;35.47;;;6.20;99.90;;;6.33;85.61;103042.56;4919969;29;20133;-79
2021/03/02 00:27:11;;;;;;;65.65;35.47;;;6.30;99.90;;;6.43;84.93;103037.78;4919749;29;20063;-79
2021/03/02 00:29:42;;;;;;;71.40;37.78;;;6.40;99.90;;;6.21;85.55;103036.72;4919785;29;20055;-78
2021/03/02 00:32:10;;;;;;;65.97;36.97;;;6.20;99.90;;;6.33;85.35;103028.53;4919908;29;20063;-79
2021/03/02 00:34:39;;;;;;;66.87;37.47;;;6.30;99.90;;;6.61;84.74;103021.13;4919558;29;20425;-79
2021/03/02 00:37:07;;;;;;;64.67;37.37;;;6.50;99.90;;;6.58;84.42;103027.97;4919629;29;20465;-79
2021/03/02 00:39:34;;;;;;;63.00;35.33;;;6.50;99.90;;;6.64;84.24;103023.00;4919644;29;20052;-79
2021/03/02 00:42:01;;;;;;;66.47;37.33;;;6.60;99.90;;;6.46;84.33;103030.03;4919490;29;20059;-78
2021/03/02 00:44:29;;;;;;;68.00;36.63;;;6.50;99.90;;;6.58;84.45;103026.22;4902387;29;20138;-79
2021/03/02 00:46:56;;;;;;;67.10;36.53;;;6.50;99.90;;;6.70;83.68;103029.41;4919293;29;20577;-78
2021/03/02 00:49:24;;;;;;;67.40;35.87;;;6.60;99.90;;;6.54;83.82;103026.94;4902483;29;20051;-79
2021/03/02 00:51:52;;;;;;;65.47;37.57;;;6.60;99.90;;;6.73;83.64;103026.03;4919540;29;20047;-78
2021/03/02 00:54:20;;;;;;;66.67;36.60;;;6.70;99.90;;;6.58;83.73;103007.81;4902351;29;20075;-79
2021/03/02 00:56:48;;;;;;;60.17;34.13;;;6.60;99.90;;;6.84;83.18;103023.06;4919274;29;20060;-79
2021/03/02 00:59:18;;;;;;;60.50;35.13;;;6.70;99.90;;;6.65;83.19;103017.81;4919061;29;20066;-79
2021/03/02 01:01:47;;;;;;;64.30;35.45;;;6.70;99.90;;;6.66;83.53;103011.69;4902470;29;20067;-79
2021/03/02 01:04:15;;;;;;;62.53;36.13;;;6.60;99.90;;;6.65;83.48;103019.53;4901908;29;20067;-79
2021/03/02 01:06:44;;;;;;;65.10;35.50;;;6.70;99.90;;;6.86;83.06;103015.22;4901975;29;20052;-79
2021/03/02 01:09:12;;;;;;;73.57;38.63;;;6.80;99.90;;;6.91;82.52;103014.59;4901707;29;20076;-79
2021/03/02 01:11:44;;;;;;;59.57;34.20;;;6.80;99.90;;;6.79;82.86;103018.44;4902130;29;20399;-79
2021/03/02 01:14:13;;;;;;;65.27;35.93;;;6.80;99.90;;;6.90;82.23;103014.53;4901966;29;20058;-79
2021/03/02 01:16:41;;;;;;;65.90;36.97;;;6.80;99.90;;;6.90;82.20;103015.44;4919309;29;20095;-80
2021/03/02 01:19:08;;;;;;;63.97;35.80;;;6.80;99.90;;;7.08;81.74;103015.38;4901984;29;20076;-78
2021/03/02 01:21:36;;;;;;;64.67;36.60;;;7.00;99.90;;;7.03;81.43;103002.00;4918798;29;20040;-78
2021/03/02 01:24:04;;;;;;;61.43;35.10;;;7.10;99.90;;;6.93;81.44;103009.44;4918699;29;20067;-76
2021/03/02 01:26:32;;;;;;;64.10;35.50;;;7.00;99.90;;;6.88;81.60;103013.56;4918543;29;20048;-79
2021/03/02 01:29:00;;;;;;;60.50;34.77;;;6.80;99.90;;;6.79;81.56;103026.31;4918626;29;20044;-79
2021/03/02 01:31:27;;;;;;;66.00;36.20;;;6.80;99.90;;;6.89;81.63;103010.13;4901690;29;20056;-80
2021/03/02 01:33:55;;;;;;;63.10;35.17;;;6.80;99.90;;;6.97;81.34;103012.25;4918488;29;20151;-79
2021/03/02 01:36:22;;;;;;;63.90;36.03;;;6.90;99.90;;;6.81;81.55;103016.78;4918725;29;20045;-79
2021/03/02 01:38:50;;;;;;;66.27;36.27;;;6.80;99.90;;;6.41;82.48;103013.16;4918450;29;20123;-78
2021/03/02 01:41:18;;;;;;;65.77;36.83;;;6.50;99.90;;;6.53;82.77;103034.72;4918390;29;20052;-79
2021/03/02 01:43:46;;;;;;;62.73;35.57;;;6.50;99.90;;;6.67;82.54;103009.97;4901472;29;20054;-79
2021/03/02 01:46:14;;;;;;;66.80;36.60;;;6.60;99.90;;;6.67;82.17;103005.63;4901446;29;20044;-79
2021/03/02 01:48:42;;;;;;;60.83;34.33;;;6.60;99.90;;;6.78;82.06;103012.25;4918351;29;20075;-79
2021/03/02 01:51:11;;;;;;;61.97;35.27;;;6.70;99.90;;;5.93;81.60;102881.28;4918497;29;20052;-78
2021/03/02 01:53:39;;;;;;;74.73;35.23;;;6.70;99.90;;;6.90;81.62;103004.94;4918042;29;20127;-79
2021/03/02 01:56:06;;;;;;;61.73;35.27;;;6.80;99.90;;;6.98;81.27;103002.63;4918357;29;20059;-79
2021/03/02 01:58:34;;;;;;;64.97;34.87;;;6.90;99.90;;;7.12;81.09;103004.16;4901327;29;20052;-80
2021/03/02 02:01:08;;;;;;;64.07;33.70;;;7.00;99.90;;;7.21;80.38;103008.09;4918176;29;20044;-79
2021/03/02 02:03:50;;;;;;;64.57;36.50;;;7.10;99.90;;;7.25;79.77;102999.47;4918135;29;20066;-79
2021/03/02 02:06:26;;;;;;;60.40;34.47;;;7.10;99.90;;;7.30;79.56;102995.31;4918238;29;20048;-78
2021/03/02 02:09:06;;;;;;;63.53;34.03;;;7.20;99.90;;;7.38;78.95;102995.63;4918122;29;20095;-79
2021/03/02 02:11:43;;;;;;;57.53;32.13;;;7.30;99.90;;;7.41;78.78;102985.25;4900981;29;20060;-79
2021/03/02 02:14:25;;;;;;;61.57;34.17;;;7.30;99.90;;;7.41;78.52;103003.69;4901005;29;20048;-79
2021/03/02 02:16:56;;;;;;;56.40;33.00;;;7.40;99.90;;;7.48;78.25;102989.91;4918056;29;20502;-78
2021/03/02 02:19:41;;;;;;;59.63;32.93;;;7.40;99.90;;;7.44;77.93;102982.72;4918035;29;20490;-79
2021/03/02 02:22:57;;;;;;;55.63;31.33;;;7.40;99.90;;;7.46;77.85;102986.31;4917395;29;20059;-78
2021/03/02 02:25:40;;;;;;;61.60;33.27;;;7.40;99.90;;;7.22;78.04;102949.31;4882976;29;20056;-79
2021/03/02 02:28:10;;;;;;;59.90;33.03;;;7.30;99.90;;;7.41;77.70;102979.06;4917684;29;20452;-79
2021/03/02 02:30:39;;;;;;;;;;;7.30;99.90;;;7.01;77.61;102897.50;4917992;29;20040;-79
2021/03/02 02:33:08;;;;;;;65.87;34.90;;;7.40;99.90;;;7.37;77.42;102977.16;4900365;29;19923;-79
2021/03/02 02:35:38;;;;;;;65.13;33.37;;;7.40;99.90;;;7.29;77.96;102982.09;4917829;29;20048;-79
2021/03/02 02:38:08;;;;;;;66.47;35.33;;;7.20;99.90;;;7.26;77.64;102971.41;4917605;29;20052;-79
2021/03/02 02:40:37;;;;;;;72.53;35.88;;;7.20;99.90;;;7.07;78.27;102969.72;4917585;29;20087;-79
2021/03/02 02:43:08;;;;;;;65.80;34.97;;;7.10;99.90;;;6.92;78.51;102974.34;4917360;29;20047;-79
2021/03/02 02:45:36;;;;;;;67.33;35.57;;;6.90;99.90;;;6.51;79.25;102931.22;4917409;29;20786;-78
2021/03/02 02:48:05;;;;;;;64.73;34.53;;;6.70;99.90;;;6.73;79.67;102971.72;4917211;29;20052;-79
2021/03/02 02:50:33;;;;;;;70.67;37.67;;;6.70;99.90;;;6.45;80.19;102962.47;4900200;29;20076;-78
2021/03/02 02:53:02;;;;;;;63.03;34.10;;;6.50;99.90;;;6.34;81.12;102959.38;4917162;29;20040;-80
2021/03/02 02:55:36;;;;;;;67.10;36.10;;;6.40;99.90;;;6.62;81.00;102966.81;4917151;29;20079;-79
2021/03/02 02:58:08;;;;;;;59.83;33.10;;;6.50;99.90;;;6.49;80.57;102965.34;4917000;29;20483;-79
2021/03/02 03:00:37;;;;;;;58.47;34.90;;;6.50;99.90;;;6.57;81.03;102963.06;4917171;29;20048;-79
2021/03/02 03:03:09;;;;;;;68.82;35.55;;;6.50;99.90;;;6.57;80.81;102969.22;4916888;29;20047;-79
2021/03/02 03:05:45;;;;;;;67.70;35.13;;;6.50;99.90;;;6.24;81.42;102965.03;4917137;29;20071;-79
2021/03/02 03:08:16;;;;;;;65.83;34.83;;;6.30;99.90;;;6.17;82.16;102970.84;4900005;29;20498;-79
2021/03/02 03:10:46;;;;;;;63.57;35.87;;;6.10;99.90;;;6.36;81.94;102962.97;4916827;29;20051;-79
2021/03/02 03:13:19;;;;;;;61.80;34.87;;;6.30;99.90;;;6.30;82.06;102968.88;4916686;29;20051;-79
2021/03/02 03:15:55;;;;;;;63.93;36.07;;;6.20;99.90;;;6.34;81.86;102965.56;4917007;29;20040;-79
2021/03/02 03:18:27;;;;;;;65.23;33.87;;;6.30;99.90;;;5.87;81.60;102881.00;4899999;29;20494;-79
2021/03/02 03:20:59;;;;;;;61.30;34.87;;;6.30;99.90;;;6.38;81.51;102969.22;4917078;29;20055;-78
2021/03/02 03:23:27;;;;;;;61.00;33.07;;;6.30;99.90;;;6.51;81.41;102962.78;4916641;29;20115;-79
2021/03/02 03:25:55;;;;;;;64.93;35.33;;;6.40;99.90;;;6.58;81.28;102975.38;4916601;29;20123;-79
2021/03/02 03:28:25;;;;;;;65.70;34.30;;;6.50;99.90;;;6.67;80.79;102971.44;4916487;29;20043;-79
2021/03/02 03:30:53;;;;;;;63.55;34.35;;;6.60;99.90;;;6.75;80.44;102975.31;4899641;29;20502;-79
2021/03/02 03:33:20;;;;;;;57.57;33.10;;;6.70;99.90;;;6.75;80.18;102956.91;4916388;29;20062;-79
2021/03/02 03:35:49;;;;;;;63.43;34.83;;;6.70;99.90;;;6.86;80.01;102968.78;4916581;29;20048;-79
2021/03/02 03:38:16;;;;;;;58.10;33.20;;;6.70;99.90;;;6.93;79.35;102964.72;4916646;29;20040;-79
2021/03/02 03:40:43;;;;;;;63.07;34.77;;;6.80;99.90;;;6.89;79.16;102954.88;4916735;29;20094;-79
2021/03/02 03:43:11;;;;;;;60.70;34.47;;;6.80;99.90;;;6.92;79.25;102957.63;4916560;29;20048;-79
2021/03/02 03:45:40;;;;;;;55.53;33.27;;;6.80;99.90;;;6.93;78.93;102959.44;4916494;29;20079;-79
2021/03/02 03:48:09;;;;;;;59.43;33.97;;;6.80;99.90;;;6.97;78.66;102964.91;4899416;29;20059;-79
2021/03/02 03:50:37;;;;;;;58.47;33.60;;;6.90;99.90;;;7.00;78.37;102958.88;4916569;29;20127;-79
2021/03/02 03:53:07;;;;;;;57.00;32.87;;;6.90;99.90;;;7.02;78.16;102946.69;4916712;29;20044;-78
2021/03/02 03:55:41;;;;;;;54.70;32.67;;;6.90;99.90;;;7.05;78.32;102957.34;4899456;29;20100;-79
2021/03/02 03:58:10;;;;;;;58.43;32.17;;;7.00;99.90;;;7.01;77.89;102958.94;4916333;29;20130;-79
2021/03/02 04:00:40;;;;;;;57.43;32.27;;;6.90;99.90;;;6.98;78.07;102963.16;4916272;29;20130;-79
2021/03/02 04:03:08;;;;;;;;;;;6.90;99.90;;;6.92;77.84;102952.38;4916531;29;20494;-80
2021/03/02 04:05:37;;;;;;;54.87;32.37;;;6.90;99.90;;;6.86;78.12;102955.66;4916897;29;20404;-78
2021/03/02 04:08:06;;;;;;;52.43;32.10;;;6.80;99.90;;;6.87;78.37;102959.19;4916316;29;20553;-79
2021/03/02 04:10:34;;;;;;;58.10;31.70;;;6.80;99.90;;;6.81;78.14;102945.75;4916372;29;20135;-79
2021/03/02 04:13:10;;;;;;;55.97;32.70;;;6.80;99.90;;;6.78;78.50;102964.00;4916110;29;20103;-79
2021/03/02 04:15:38;;;;;;;56.30;32.57;;;6.70;99.90;;;6.68;78.26;102936.41;4916142;29;20044;-79
2021/03/02 04:18:12;;;;;;;54.90;32.57;;;6.70;99.90;;;6.82;78.13;102966.84;4916296;29;20405;-79
2021/03/02 04:20:40;;;;;;;60.87;33.00;;;6.70;99.90;;;6.77;77.99;102963.13;4916144;29;20044;-79
2021/03/02 04:23:09;;;;;;;58.23;31.43;;;6.70;99.90;;;6.70;78.21;102960.13;4899138;29;20056;-78
2021/03/02 04:25:37;;;;;;;52.00;30.80;;;6.60;99.90;;;6.68;77.94;102965.34;4916018;29;20044;-80
2021/03/02 04:28:06;;;;;;;60.53;32.60;;;6.60;99.90;;;6.53;78.62;102961.13;4916410;29;20143;-79
2021/03/02 04:30:35;;;;;;;67.77;35.33;;;6.50;99.90;;;6.35;78.92;102961.16;4916167;29;20092;-80
2021/03/02 04:33:04;;;;;;;56.70;33.43;;;6.40;99.90;;;6.41;79.15;102948.31;4916227;29;20819;-79
2021/03/02 04:35:33;;;;;;;53.00;31.67;;;6.40;99.90;;;6.51;78.95;102954.88;4899041;29;20048;-80
2021/03/02 04:38:01;;;;;;;54.57;32.13;;;6.40;99.90;;;6.49;78.98;102960.06;4915998;29;20391;-79
2021/03/02 04:40:28;;;;;;;55.07;32.93;;;6.40;99.90;;;6.55;78.75;102957.72;4914637;29;20083;-80
2021/03/02 04:42:56;;;;;;;57.17;31.97;;;6.40;99.90;;;6.55;78.57;102955.09;4916172;29;20091;-79
2021/03/02 04:45:23;;;;;;;56.87;32.43;;;6.40;99.90;;;6.60;78.51;102960.59;4919139;29;20044;-79
2021/03/02 04:47:51;;;;;;;60.73;33.77;;;6.50;99.90;;;6.45;78.31;102962.47;4919635;29;20048;-79
2021/03/02 04:50:18;;;;;;;60.03;32.33;;;6.50;99.90;;;6.27;78.68;102937.16;4919469;29;20430;-79
2021/03/02 04:52:46;;;;;;;58.80;33.43;;;6.40;99.90;;;6.43;78.75;102969.44;4919265;29;20107;-79
2021/03/02 04:55:14;;;;;;;58.63;32.70;;;6.40;99.90;;;6.45;78.66;102959.84;4919332;29;20143;-79
2021/03/02 04:57:41;;;;;;;57.13;31.80;;;6.30;99.90;;;6.52;78.47;102956.69;4919383;29;20040;-80
2021/03/02 05:00:12;;;;;;;55.47;32.43;;;6.40;99.90;;;6.55;78.30;102954.19;4919070;29;20573;-79
2021/03/02 05:02:39;;;;;;;59.40;32.40;;;6.40;99.90;;;6.56;78.11;102956.91;4919147;29;20092;-79
2021/03/02 05:05:08;;;;;;;59.37;32.93;;;6.50;99.90;;;6.55;78.04;102969.97;4918944;29;20052;-74
2021/03/02 05:07:37;;;;;;;55.93;32.93;;;6.50;99.90;;;6.08;77.94;102887.22;4918944;29;20055;-76
2021/03/02 05:10:07;;;;;;;55.77;32.40;;;6.50;99.90;;;6.48;77.92;102953.03;4919212;29;20122;-73
2021/03/02 05:12:34;;;;;;;55.17;32.65;;;6.40;99.90;;;6.47;78.24;102955.56;4919182;29;20509;-76
2021/03/02 05:15:02;;;;;;;55.80;31.90;;;6.40;99.90;;;6.33;78.14;102921.69;4918958;29;20040;-75
2021/03/02 05:17:29;;;;;;;58.33;32.90;;;6.40;99.90;;;6.44;77.94;102955.44;4918818;29;20044;-72
2021/03/02 05:19:57;;;;;;;56.27;31.70;;;6.40;99.90;;;6.47;78.10;102955.56;4918793;29;20051;-72
2021/03/02 05:22:24;;;;;;;61.97;34.07;;;6.40;99.90;;;6.41;78.20;102953.56;4918660;29;20040;-79
2021/03/02 05:24:52;;;;;;;56.60;32.57;;;6.40;99.90;;;6.29;78.10;102950.41;4918501;29;20048;-76
2021/03/02 05:27:21;;;;;;;62.23;33.23;;;6.30;99.90;;;5.86;77.98;102847.69;4918665;29;20052;-74
2021/03/02 05:29:48;;;;;;;59.10;32.87;;;6.30;99.90;;;6.39;77.99;102950.88;4918837;29;20047;-74
2021/03/02 05:32:15;;;;;;;59.80;32.57;;;6.30;99.90;;;6.33;78.04;102940.06;4918500;29;20054;-74
2021/03/02 05:34:43;;;;;;;60.63;33.03;;;6.30;99.90;;;6.35;78.31;102945.41;4918370;29;20040;-75
2021/03/02 05:37:10;;;;;;;57.97;32.70;;;6.30;99.90;;;6.37;78.15;102944.66;4901848;29;20052;-75
2021/03/02 05:39:38;;;;;;;53.77;32.27;;;6.30;99.90;;;6.35;78.12;102943.69;4901642;29;20052;-73
2021/03/02 05:42:07;;;;;;;57.20;32.43;;;6.30;99.90;;;6.26;78.01;102931.84;4918499;29;20052;-74
2021/03/02 05:44:36;;;;;;;56.67;33.88;;;6.20;99.90;;;6.16;78.18;102943.66;4901601;29;20044;-74
2021/03/02 05:47:04;;;;;;;59.60;33.40;;;6.10;99.90;;;5.89;78.53;102897.72;4918199;29;20044;-74
2021/03/02 05:49:32;;;;;;;61.60;35.07;;;6.10;99.90;;;6.17;78.55;102936.69;4918451;29;20048;-74
2021/03/02 05:51:59;;;;;;;58.03;32.90;;;6.10;99.90;;;6.20;78.48;102940.34;4901495;29;20084;-74
2021/03/02 05:54:27;;;;;;;58.70;35.67;;;6.10;99.90;;;6.06;78.15;102925.66;4900985;29;20059;-74
2021/03/02 05:56:54;;;;;;;61.97;34.00;;;6.10;99.90;;;6.10;78.52;102945.09;4917420;29;20450;-74
2021/03/02 05:59:23;;;;;;;54.73;32.47;;;6.10;99.90;;;6.00;78.48;102940.25;4901120;29;20078;-74
2021/03/02 06:01:52;;;;;;;61.63;33.43;;;6.00;99.90;;;5.99;78.98;102935.81;4901236;29;20509;-73
2021/03/02 06:04:19;;;;;;;57.17;32.70;;;5.90;99.90;;;6.04;78.60;102932.56;4901012;29;20506;-73
2021/03/02 06:06:47;;;;;;;62.10;34.93;;;6.00;99.90;;;5.63;78.41;102852.66;4901138;29;20084;-74
2021/03/02 06:09:14;;;;;;;58.57;34.07;;;6.00;99.90;;;6.07;78.72;102929.19;4901108;29;20478;-74
2021/03/02 06:11:41;;;;;;;62.27;34.03;;;6.00;99.90;;;6.01;78.85;102937.69;4918012;29;20092;-74
2021/03/02 06:14:21;;;;;;;57.97;33.37;;;5.90;99.90;;;6.01;78.52;102942.03;4900703;29;20100;-74
2021/03/02 06:16:57;;;;;;;60.43;34.97;;;5.90;99.90;;;5.88;78.82;102935.31;4917831;29;20048;-72
2021/03/02 06:19:41;;;;;;;64.18;35.10;;;5.80;99.90;;;5.94;78.82;102934.72;4900976;29;20205;-74
2021/03/02 06:22:10;;;;;;;62.77;34.17;;;5.90;99.90;;;5.82;78.63;102928.84;4917721;29;20156;-74
2021/03/02 06:24:41;;;;;;;65.70;35.43;;;5.90;99.90;;;5.93;78.69;102938.16;4917583;29;20044;-74
2021/03/02 06:27:11;;;;;;;60.23;33.63;;;5.90;99.90;;;5.96;78.85;102947.06;4900716;29;20529;-75
2021/03/02 06:29:40;;;;;;;64.18;36.50;;;5.90;99.90;;;5.79;78.66;102942.72;4917899;29;20071;-74
2021/03/02 06:32:09;;;;;;;64.07;34.13;;;5.80;99.90;;;5.80;79.23;102930.50;4917581;29;20094;-74
2021/03/02 06:34:49;;;;;;;68.20;37.47;;;5.80;99.90;;;5.87;78.95;102944.00;4900643;29;20059;-73
2021/03/02 06:37:16;;;;;;;60.57;34.80;;;5.80;99.90;;;5.79;79.12;102942.72;4917752;29;20409;-75
2021/03/02 06:39:44;;;;;;;67.50;35.67;;;5.80;99.90;;;5.81;79.14;102937.53;4917526;29;20152;-74
2021/03/02 06:42:19;;;;;;;62.58;35.95;;;5.80;99.90;;;5.88;79.40;102944.94;4900479;29;20116;-74
2021/03/02 06:44:49;;;;;;;67.03;34.73;;;5.80;99.90;;;5.96;79.27;102943.56;4917341;29;20438;-74
2021/03/02 06:47:34;;;;;;;63.40;34.93;;;5.90;99.90;;;6.11;79.13;102955.69;4917201;29;20131;-74
2021/03/02 06:50:05;;;;;;;63.20;36.80;;;6.00;99.90;;;6.15;78.86;102941.88;4917195;29;20044;-74
2021/03/02 06:52:38;;;;;;;64.18;35.55;;;6.10;99.90;;;6.36;78.63;102947.22;4917382;29;20056;-74
2021/03/02 06:55:22;;;;;;;62.80;34.43;;;6.30;99.90;;;6.55;77.81;102941.06;4917071;29;20076;-74
2021/03/02 06:57:51;;;;;;;62.10;34.40;;;6.40;99.90;;;6.45;77.63;102952.88;4917393;29;20048;-74
2021/03/02 07:00:32;;;;;;;61.70;34.30;;;6.40;99.90;;;6.63;76.91;102963.34;4899925;29;20074;-73
2021/03/02 07:03:00;;;;;;;66.47;35.37;;;6.50;99.90;;;6.52;76.95;102954.97;4916662;29;20123;-74
2021/03/02 07:05:28;;;;;;;59.77;33.50;;;6.40;99.90;;;6.72;76.73;102958.47;4916590;29;20139;-74
2021/03/02 07:07:55;;;;;;;71.47;36.17;;;6.60;99.90;;;6.80;76.11;102958.00;4916476;29;20074;-74
2021/03/02 07:10:25;;;;;;;60.90;35.80;;;6.70;99.90;;;6.92;75.89;102962.91;4916756;29;20414;-74
2021/03/02 07:12:55;;;;;;;63.27;36.60;;;6.80;99.90;;;7.05;75.39;102962.59;4916952;29;20056;-74
2021/03/02 07:15:24;;;;;;;60.60;35.13;;;6.90;99.90;;;7.15;74.75;102970.06;4916964;29;20040;-74
2021/03/02 07:17:54;;;;;;;59.33;34.83;;;7.10;99.90;;;7.18;75.01;102968.44;4917155;29;20051;-74
2021/03/02 07:20:24;;;;;;;67.25;34.55;;;7.10;99.90;;;7.28;74.87;102972.38;4916776;29;20051;-74
2021/03/02 07:22:55;;;;;;;64.00;35.57;;;7.20;99.90;;;7.13;74.21;102890.16;4916664;29;20044;-75
2021/03/02 07:25:23;;;;;;;60.47;34.30;;;7.50;99.90;;;7.77;73.74;102965.69;4916609;29;20395;-74
2021/03/02 07:27:54;;;;;;;61.97;36.03;;;7.70;99.90;;;8.06;72.78;102977.38;4916605;29;20044;-74
2021/03/02 07:30:22;;;;;;;60.63;33.65;;;7.90;99.90;;;8.36;71.98;102983.00;4916888;29;20103;-74
2021/03/02 07:32:50;;;;;;;57.10;34.50;;;8.30;99.90;;;8.19;71.07;102946.28;4916555;29;20048;-74
2021/03/02 07:35:20;;;;;;;57.33;34.00;;;8.40;99.90;;;8.26;70.85;102979.13;4916363;29;20052;-75
2021/03/02 07:37:48;;;;;;;59.10;33.83;;;8.30;99.90;;;8.37;70.46;102968.97;4916353;29;20126;-74
2021/03/02 07:40:19;;;;;;;60.50;33.75;;;8.40;99.90;;;8.62;70.25;102982.22;4916583;29;20067;-74
2021/03/02 07:42:47;;;;;;;56.05;32.20;;;8.60;99.90;;;8.72;69.70;102976.47;4916687;29;20119;-74
2021/03/02 07:45:20;;;;;;;62.70;33.00;;;8.70;99.90;;;9.07;69.45;102981.28;4899600;29;20052;-76
2021/03/02 07:48:00;;;;;;;56.22;33.05;;;9.00;99.90;;;9.29;68.30;102996.13;4916388;29;20052;-74
2021/03/02 07:50:30;;;;;;;57.03;33.75;;;9.20;99.90;;;8.95;69.30;102980.84;4916341;29;20055;-74
2021/03/02 07:53:21;;;;;;;55.15;33.75;;;8.90;99.90;;;8.88;68.97;102992.03;4916345;29;20491;-74
2021/03/02 07:56:24;;;;;;;57.53;32.65;;;8.80;99.90;;;7.78;71.36;102985.03;4916274;29;20052;-74
2021/03/02 07:59:18;;;;;;;59.97;34.38;;;7.90;99.90;;;7.90;72.50;102986.41;4916278;29;20462;-73
2021/03/02 08:02:16;;;;;;;60.10;34.13;;;7.70;99.90;;;8.13;72.19;102989.97;4916448;29;20052;-74
2021/03/02 08:05:30;;;;;;;55.75;33.47;;;7.90;99.90;;;8.51;71.47;102992.41;4916548;29;20160;-74
2021/03/02 08:08:32;;;;;;;58.03;33.35;;;8.30;99.90;;;8.94;70.01;102986.97;4916324;29;20052;-73
2021/03/02 08:11:03;;;;;;;58.80;33.88;;;8.80;99.90;;;8.67;69.71;102993.88;4916130;29;20056;-74
2021/03/02 08:13:37;;;;;;;60.97;32.97;;;8.70;99.90;;;8.68;70.38;102978.09;4899295;29;20139;-74
2021/03/02 08:16:06;;;;;;;60.58;32.85;;;8.70;99.90;;;8.73;70.42;102986.19;4916238;29;20074;-73
2021/03/02 08:18:36;;;;;;;55.70;33.45;;;8.60;99.90;;;9.03;70.61;102984.66;4899904;29;20419;-73
2021/03/02 08:21:15;;;;;;;57.03;33.78;;;8.80;99.90;;;8.73;69.58;102988.81;4919767;29;20127;-74
2021/03/02 08:24:01;;;;;;;55.97;32.40;;;8.80;99.90;;;9.26;70.93;102996.00;4919972;29;20044;-73
2021/03/02 08:26:31;;;;;;;57.97;33.05;;;9.00;99.90;;;9.07;70.32;102986.56;4919672;29;20044;-74
2021/03/02 08:29:13;;;;;;;64.22;31.75;;;9.00;99.90;;;9.92;69.06;103012.41;4919842;29;20046;-73
2021/03/02 08:31:44;;;;;;;59.28;33.30;;;9.70;99.90;;;9.47;67.55;103012.59;4919601;29;20406;-73
2021/03/02 08:34:14;;;;;;;55.72;32.67;;;9.70;99.90;;;9.51;69.72;103002.19;4919779;29;20044;-74
2021/03/02 08:36:43;;;;;;;52.07;31.00;;;9.40;99.90;;;10.13;67.06;103004.28;4919585;29;20036;-74
2021/03/02 08:39:14;;;;;;;49.08;31.65;;;10.00;99.90;;;10.49;67.50;103007.19;4902591;29;20069;-72
2021/03/02 08:41:43;;;;;;;51.08;29.50;;;10.20;99.90;;;10.43;66.45;102996.41;4902319;29;20048;-74
2021/03/02 08:44:18;;;;;;;49.03;30.67;;;10.40;99.90;;;9.98;66.68;103006.41;4919302;29;20082;-73
2021/03/02 08:46:50;;;;;;;51.15;31.33;;;10.00;99.90;;;9.16;68.12;103015.91;4919457;29;20052;-72
2021/03/02 08:49:19;;;;;;;57.13;32.90;;;9.40;99.90;;;8.37;70.61;103014.69;4919097;29;20040;-73
2021/03/02 08:51:47;;;;;;;54.60;33.22;;;8.50;99.90;;;8.70;72.46;103007.16;4918996;29;20048;-73
2021/03/02 08:54:15;;;;;;;50.97;32.15;;;8.40;99.90;;;8.90;72.33;103006.16;4918999;29;20494;-73
2021/03/02 08:56:43;;;;;;;49.20;30.67;;;8.70;99.90;;;9.24;69.47;103006.53;4902160;29;20107;-73
2021/03/02 08:59:14;;;;;;;54.28;32.35;;;9.10;99.90;;;9.44;70.01;103010.78;4919381;29;20052;-73
2021/03/02 09:01:42;;;;;;;;;;;9.30;99.90;;;10.20;68.65;103018.63;4919677;29;20052;-73
2021/03/02 09:04:14;;;;;;;50.95;30.65;;;9.90;99.90;;;9.64;67.29;102900.47;4918843;29;19930;-73
2021/03/02 09:06:43;;;;;;;48.15;31.30;;;10.10;99.90;;;9.83;67.65;103014.72;4919008;29;20412;-73
2021/03/02 09:09:12;;;;;;;46.47;29.73;;;9.90;99.90;;;10.39;68.12;102982.22;4918806;29;20050;-73
2021/03/02 09:11:43;;;;;;;47.78;31.40;;;10.20;99.90;;;10.43;66.38;103010.53;4918997;29;20388;-73
2021/03/02 09:14:15;;;;;;;46.33;29.65;;;10.40;99.90;;;10.22;68.31;103033.66;4918829;29;20048;-73
2021/03/02 09:16:46;;;;;;;48.78;30.15;;;10.10;99.90;;;10.75;66.65;103012.41;4918928;29;20779;-74
2021/03/02 09:19:28;;;;;;;49.80;30.63;;;10.50;99.90;;;10.71;64.62;103010.50;4918829;29;20048;-74
2021/03/02 09:21:59;;;;;;;45.08;29.58;;;10.80;99.90;;;9.91;66.47;102981.53;4918634;29;20040;-74
2021/03/02 09:24:45;;;;;;;48.60;29.35;;;10.20;99.90;;;10.10;67.11;103006.84;4918837;29;20048;-74
2021/03/02 09:27:15;;;;;;;43.03;29.03;;;10.10;99.90;;;9.90;67.26;103000.91;4918878;29;20050;-74
2021/03/02 09:29:46;;;;;;;47.30;29.00;;;9.90;99.90;;;11.12;67.12;103001.09;4918366;29;20288;-74
2021/03/02 09:32:22;;;;;;;45.78;28.60;;;10.70;99.90;;;11.07;65.74;103012.41;4918484;29;20578;-74
2021/03/02 09:34:55;;;;;;;45.97;29.50;;;10.80;99.90;;;11.35;65.37;103007.91;4918662;29;20078;-73
2021/03/02 09:37:23;;;;;;;44.85;30.00;;;11.10;99.90;;;10.73;64.91;102984.97;4918598;29;20128;-74
2021/03/02 09:39:59;;;;;;;45.78;29.73;;;10.90;99.90;;;11.21;64.52;103005.72;4918489;29;20048;-74
2021/03/02 09:42:29;;;;;;;47.00;29.38;;;11.10;99.90;;;11.45;65.73;103009.97;4918334;29;20106;-74
2021/03/02 09:44:58;;;;;;;42.45;27.40;;;11.10;99.90;;;11.67;64.07;102993.75;4918696;29;20048;-74
2021/03/02 09:47:29;;;;;;;47.20;26.98;;;11.50;99.90;;;11.65;63.04;103006.06;4918253;29;20152;-75
2021/03/02 09:49:59;;;;;;;41.20;28.63;;;11.60;99.90;;;10.66;63.88;102937.13;4918482;29;20048;-75
2021/03/02 09:52:38;;;;;;;45.58;29.92;;;11.00;99.90;;;11.11;64.45;102999.28;4918537;29;20086;-74
2021/03/02 09:55:32;;;;;;;43.08;28.27;;;11.00;99.90;;;11.48;65.48;102994.13;4918100;29;20569;-73
2021/03/02 09:58:07;;;;;;;43.85;26.60;;;11.10;99.90;;;12.33;63.06;103004.22;4918230;29;20048;-74
2021/03/02 10:00:39;;;;;;;41.45;26.73;;;11.90;99.90;;;12.23;61.41;102999.56;4918104;29;20040;-74
2021/03/02 10:03:11;;;;;;;43.45;28.40;;;12.10;99.90;;;13.09;61.75;103004.06;4917999;29;20104;-74
2021/03/02 10:05:42;;;;;;;44.50;27.75;;;12.70;99.90;;;12.17;61.49;103004.72;4917857;29;20502;-74
2021/03/02 10:08:29;;;;;;;36.20;24.75;;;12.30;99.90;;;10.89;63.16;102994.25;4918083;29;20416;-74
2021/03/02 10:11:02;;;;;;;40.90;26.42;;;11.10;99.90;;;10.75;64.91;102996.50;4901069;29;20060;-73
2021/03/02 10:13:33;;;;;;;37.67;25.23;;;10.60;99.90;;;11.43;63.71;102987.81;4917770;29;20524;-74
2021/03/02 10:16:16;;;;;;;38.70;25.60;;;11.00;99.90;;;11.48;63.01;102988.81;4917569;29;20514;-74
2021/03/02 10:18:50;;;;;;;41.15;25.65;;;11.20;99.90;;;11.77;62.38;102987.84;4917927;29;20056;-74
2021/03/02 10:21:19;;;;;;;39.20;26.83;;;11.60;99.90;;;10.77;64.87;102996.56;4917492;29;20075;-73
2021/03/02 10:23:48;;;;;;;40.47;25.55;;;10.90;99.90;;;10.61;65.03;102996.94;4917472;29;20052;-74
2021/03/02 10:26:22;;;;;;;42.13;25.67;;;10.50;99.90;;;10.42;65.27;102997.25;4900514;29;20379;-73
2021/03/02 10:28:52;;;;;;;39.85;25.10;;;10.30;99.90;;;10.49;65.50;102986.03;4917924;29;20050;-73